sensor_id;sensor_type;location;lat;lon;timestamp;temperature;humidity
50738;DHT22;36703;48.154;17.126;2023-05-10T00:01:38;17.60;40.10
50738;DHT22;36703;48.154;17.126;2023-05-10T00:05:41;17.50;40.30
50738;DHT22;36703;48.154;17.126;2023-05-10T00:09:43;17.50;40.50
50738;DHT22;36703;48.154;17.126;2023-05-10T00:13:44;17.50;42.10
50738;DHT22;36703;48.154;17.126;2023-05-10T00:17:46;17.40;41.80
50738;DHT22;36703;48.154;17.126;2023-05-10T00:21:48;17.10;40.60
50738;DHT22;36703;48.154;17.126;2023-05-10T00:25:50;17.30;40.80
50738;DHT22;36703;48.154;17.126;2023-05-10T00:29:51;17.20;40.90
50738;DHT22;36703;48.154;17.126;2023-05-10T00:33:53;17.10;41.00
50738;DHT22;36703;48.154;17.126;2023-05-10T00:37:54;17.10;41.10
50738;DHT22;36703;48.154;17.126;2023-05-10T00:41:56;17.00;41.10
50738;DHT22;36703;48.154;17.126;2023-05-10T00:45:58;17.00;41.40
50738;DHT22;36703;48.154;17.126;2023-05-10T00:50:00;17.00;41.40
50738;DHT22;36703;48.154;17.126;2023-05-10T00:54:02;16.90;41.50
50738;DHT22;36703;48.154;17.126;2023-05-10T00:58:04;16.90;41.50
50738;DHT22;36703;48.154;17.126;2023-05-10T01:02:06;16.80;41.60
50738;DHT22;36703;48.154;17.126;2023-05-10T01:06:08;16.80;41.70
50738;DHT22;36703;48.154;17.126;2023-05-10T01:10:11;16.80;41.70
50738;DHT22;36703;48.154;17.126;2023-05-10T01:14:13;16.70;41.70
50738;DHT22;36703;48.154;17.126;2023-05-10T01:18:18;16.60;41.90
50738;DHT22;36703;48.154;17.126;2023-05-10T01:27:19;16.50;42.40
50738;DHT22;36703;48.154;17.126;2023-05-10T01:32:06;16.40;42.40
50738;DHT22;36703;48.154;17.126;2023-05-10T01:36:27;16.50;43.30
50738;DHT22;36703;48.154;17.126;2023-05-10T01:40:37;16.40;42.70
50738;DHT22;36703;48.154;17.126;2023-05-10T01:45:02;16.70;42.80
50738;DHT22;36703;48.154;17.126;2023-05-10T01:49:38;16.40;42.80
50738;DHT22;36703;48.154;17.126;2023-05-10T01:53:42;16.40;43.40
50738;DHT22;36703;48.154;17.126;2023-05-10T01:57:48;16.40;43.40
50738;DHT22;36703;48.154;17.126;2023-05-10T02:01:53;16.90;43.40
50738;DHT22;36703;48.154;17.126;2023-05-10T02:05:56;16.30;43.30
50738;DHT22;36703;48.154;17.126;2023-05-10T02:09:59;16.10;43.00
50738;DHT22;36703;48.154;17.126;2023-05-10T02:14:02;16.10;43.20
50738;DHT22;36703;48.154;17.126;2023-05-10T02:18:05;16.10;43.30
50738;DHT22;36703;48.154;17.126;2023-05-10T02:22:08;16.10;43.50
50738;DHT22;36703;48.154;17.126;2023-05-10T02:26:11;16.10;58.40
50738;DHT22;36703;48.154;17.126;2023-05-10T02:30:15;16.10;57.60
50738;DHT22;36703;48.154;17.126;2023-05-10T02:34:17;16.10;57.30
50738;DHT22;36703;48.154;17.126;2023-05-10T02:38:21;16.10;57.50
50738;DHT22;36703;48.154;17.126;2023-05-10T02:42:27;16.30;56.90
50738;DHT22;36703;48.154;17.126;2023-05-10T02:46:29;16.10;56.80
50738;DHT22;36703;48.154;17.126;2023-05-10T02:50:33;16.10;56.80
50738;DHT22;36703;48.154;17.126;2023-05-10T02:54:41;16.10;56.80
50738;DHT22;36703;48.154;17.126;2023-05-10T02:58:45;16.00;52.30
50738;DHT22;36703;48.154;17.126;2023-05-10T03:02:47;15.90;49.90
50738;DHT22;36703;48.154;17.126;2023-05-10T03:06:49;16.50;44.60
50738;DHT22;36703;48.154;17.126;2023-05-10T03:11:02;15.80;44.30
50738;DHT22;36703;48.154;17.126;2023-05-10T03:15:20;15.70;44.30
50738;DHT22;36703;48.154;17.126;2023-05-10T03:23:59;15.80;44.50
50738;DHT22;36703;48.154;17.126;2023-05-10T03:28:04;15.70;44.60
50738;DHT22;36703;48.154;17.126;2023-05-10T03:32:06;15.70;44.60
50738;DHT22;36703;48.154;17.126;2023-05-10T03:36:08;15.80;44.70
50738;DHT22;36703;48.154;17.126;2023-05-10T03:40:10;15.80;44.70
50738;DHT22;36703;48.154;17.126;2023-05-10T03:44:15;15.80;44.80
50738;DHT22;36703;48.154;17.126;2023-05-10T03:48:16;15.80;45.00
50738;DHT22;36703;48.154;17.126;2023-05-10T03:52:18;15.80;45.00
50738;DHT22;36703;48.154;17.126;2023-05-10T03:56:20;15.80;45.20
50738;DHT22;36703;48.154;17.126;2023-05-10T04:00:22;15.70;45.30
50738;DHT22;36703;48.154;17.126;2023-05-10T04:04:28;15.70;45.60
50738;DHT22;36703;48.154;17.126;2023-05-10T04:08:30;15.70;45.60
50738;DHT22;36703;48.154;17.126;2023-05-10T04:12:32;15.80;45.80
50738;DHT22;36703;48.154;17.126;2023-05-10T04:16:33;15.70;46.00
50738;DHT22;36703;48.154;17.126;2023-05-10T04:20:35;15.70;46.20
50738;DHT22;36703;48.154;17.126;2023-05-10T04:24:37;15.70;47.50
50738;DHT22;36703;48.154;17.126;2023-05-10T04:28:38;15.60;46.60
50738;DHT22;36703;48.154;17.126;2023-05-10T04:32:40;16.00;47.00
50738;DHT22;36703;48.154;17.126;2023-05-10T04:36:41;15.70;46.90
50738;DHT22;36703;48.154;17.126;2023-05-10T04:40:43;15.70;46.90
50738;DHT22;36703;48.154;17.126;2023-05-10T04:44:45;15.70;47.00
50738;DHT22;36703;48.154;17.126;2023-05-10T04:48:46;15.70;47.20
50738;DHT22;36703;48.154;17.126;2023-05-10T04:52:48;15.50;47.30
50738;DHT22;36703;48.154;17.126;2023-05-10T04:56:50;15.60;48.50
50738;DHT22;36703;48.154;17.126;2023-05-10T05:00:52;15.60;47.80
50738;DHT22;36703;48.154;17.126;2023-05-10T05:04:55;15.70;48.00
50738;DHT22;36703;48.154;17.126;2023-05-10T05:08:58;15.70;48.20
50738;DHT22;36703;48.154;17.126;2023-05-10T05:13:00;16.10;48.50
50738;DHT22;36703;48.154;17.126;2023-05-10T05:17:02;15.70;48.50
50738;DHT22;36703;48.154;17.126;2023-05-10T05:21:03;15.70;48.70
50738;DHT22;36703;48.154;17.126;2023-05-10T05:25:14;15.70;48.90
50738;DHT22;36703;48.154;17.126;2023-05-10T05:29:16;15.70;49.00
50738;DHT22;36703;48.154;17.126;2023-05-10T05:33:18;15.80;49.00
50738;DHT22;36703;48.154;17.126;2023-05-10T05:37:20;15.80;49.20
50738;DHT22;36703;48.154;17.126;2023-05-10T05:41:22;15.80;49.40
50738;DHT22;36703;48.154;17.126;2023-05-10T05:45:25;15.90;49.60
50738;DHT22;36703;48.154;17.126;2023-05-10T05:49:27;15.90;49.80
50738;DHT22;36703;48.154;17.126;2023-05-10T05:53:28;15.90;50.00
50738;DHT22;36703;48.154;17.126;2023-05-10T05:57:30;16.10;50.10
50738;DHT22;36703;48.154;17.126;2023-05-10T06:01:31;16.00;50.00
50738;DHT22;36703;48.154;17.126;2023-05-10T06:05:33;16.20;50.10
50738;DHT22;36703;48.154;17.126;2023-05-10T06:09:34;16.30;50.00
50738;DHT22;36703;48.154;17.126;2023-05-10T06:13:36;16.40;50.00
50738;DHT22;36703;48.154;17.126;2023-05-10T06:17:38;16.40;49.90
50738;DHT22;36703;48.154;17.126;2023-05-10T06:21:39;16.50;50.00
50738;DHT22;36703;48.154;17.126;2023-05-10T06:25:41;16.60;49.90
50738;DHT22;36703;48.154;17.126;2023-05-10T06:29:43;16.60;49.80
50738;DHT22;36703;48.154;17.126;2023-05-10T06:33:44;16.70;49.70
50738;DHT22;36703;48.154;17.126;2023-05-10T06:37:46;16.80;49.70
50738;DHT22;36703;48.154;17.126;2023-05-10T06:41:48;16.90;49.60
50738;DHT22;36703;48.154;17.126;2023-05-10T06:45:50;16.70;49.40
50738;DHT22;36703;48.154;17.126;2023-05-10T06:49:51;17.00;49.40
50738;DHT22;36703;48.154;17.126;2023-05-10T06:53:53;17.10;49.40
50738;DHT22;36703;48.154;17.126;2023-05-10T06:57:55;16.90;49.10
50738;DHT22;36703;48.154;17.126;2023-05-10T07:01:56;17.30;49.20
50738;DHT22;36703;48.154;17.126;2023-05-10T07:06:02;17.50;49.00
50738;DHT22;36703;48.154;17.126;2023-05-10T07:10:05;17.60;48.80
50738;DHT22;36703;48.154;17.126;2023-05-10T07:14:07;17.70;48.60
50738;DHT22;36703;48.154;17.126;2023-05-10T07:18:08;17.80;48.40
50738;DHT22;36703;48.154;17.126;2023-05-10T07:22:10;17.90;48.20
50738;DHT22;36703;48.154;17.126;2023-05-10T07:26:11;17.90;48.10
50738;DHT22;36703;48.154;17.126;2023-05-10T07:30:13;18.00;47.90
50738;DHT22;36703;48.154;17.126;2023-05-10T07:34:15;18.10;47.80
50738;DHT22;36703;48.154;17.126;2023-05-10T07:38:16;18.20;47.60
50738;DHT22;36703;48.154;17.126;2023-05-10T07:42:18;18.30;47.50
50738;DHT22;36703;48.154;17.126;2023-05-10T07:46:20;18.60;47.50
50738;DHT22;36703;48.154;17.126;2023-05-10T07:50:21;18.40;47.20
50738;DHT22;36703;48.154;17.126;2023-05-10T07:54:23;18.60;47.10
50738;DHT22;36703;48.154;17.126;2023-05-10T07:58:25;18.60;46.80
50738;DHT22;36703;48.154;17.126;2023-05-10T08:02:26;18.60;46.50
50738;DHT22;36703;48.154;17.126;2023-05-10T08:06:28;18.70;46.30
50738;DHT22;36703;48.154;17.126;2023-05-10T08:10:31;18.60;46.00
50738;DHT22;36703;48.154;17.126;2023-05-10T08:14:32;18.70;46.00
50738;DHT22;36703;48.154;17.126;2023-05-10T08:18:34;18.70;45.80
50738;DHT22;36703;48.154;17.126;2023-05-10T08:22:36;18.70;45.40
50738;DHT22;36703;48.154;17.126;2023-05-10T08:26:37;18.70;45.20
50738;DHT22;36703;48.154;17.126;2023-05-10T08:30:39;18.80;45.00
50738;DHT22;36703;48.154;17.126;2023-05-10T08:34:40;18.90;44.90
50738;DHT22;36703;48.154;17.126;2023-05-10T08:38:42;19.10;44.70
50738;DHT22;36703;48.154;17.126;2023-05-10T08:42:50;19.10;44.50
50738;DHT22;36703;48.154;17.126;2023-05-10T08:46:54;19.10;44.50
50738;DHT22;36703;48.154;17.126;2023-05-10T08:50:57;19.10;44.40
50738;DHT22;36703;48.154;17.126;2023-05-10T08:55:00;19.30;44.20
50738;DHT22;36703;48.154;17.126;2023-05-10T08:59:02;19.30;43.90
50738;DHT22;36703;48.154;17.126;2023-05-10T09:03:05;19.50;44.00
50738;DHT22;36703;48.154;17.126;2023-05-10T09:07:07;19.60;43.70
50738;DHT22;36703;48.154;17.126;2023-05-10T09:11:09;19.80;43.60
50738;DHT22;36703;48.154;17.126;2023-05-10T09:15:11;20.00;43.30
50738;DHT22;36703;48.154;17.126;2023-05-10T09:19:15;20.10;43.30
50738;DHT22;36703;48.154;17.126;2023-05-10T09:23:17;20.20;43.10
50738;DHT22;36703;48.154;17.126;2023-05-10T09:27:26;20.30;43.10
50738;DHT22;36703;48.154;17.126;2023-05-10T09:31:47;20.40;42.90
50738;DHT22;36703;48.154;17.126;2023-05-10T09:35:52;20.30;43.20
50738;DHT22;36703;48.154;17.126;2023-05-10T09:39:54;20.30;42.80
50738;DHT22;36703;48.154;17.126;2023-05-10T09:43:56;20.60;42.60
50738;DHT22;36703;48.154;17.126;2023-05-10T09:47:58;20.70;42.20
50738;DHT22;36703;48.154;17.126;2023-05-10T09:52:06;20.80;42.10
50738;DHT22;36703;48.154;17.126;2023-05-10T09:56:08;21.00;41.80
50738;DHT22;36703;48.154;17.126;2023-05-10T10:00:10;21.30;41.60
50738;DHT22;36703;48.154;17.126;2023-05-10T10:04:14;21.50;41.20
50738;DHT22;36703;48.154;17.126;2023-05-10T10:08:17;21.80;40.70
50738;DHT22;36703;48.154;17.126;2023-05-10T10:12:19;22.40;40.40
50738;DHT22;36703;48.154;17.126;2023-05-10T10:16:21;23.10;39.40
50738;DHT22;36703;48.154;17.126;2023-05-10T10:20:23;23.60;38.80
50738;DHT22;36703;48.154;17.126;2023-05-10T10:24:25;23.80;39.50
50738;DHT22;36703;48.154;17.126;2023-05-10T10:33:43;25.10;36.10
50738;DHT22;36703;48.154;17.126;2023-05-10T10:37:57;25.70;42.50
50738;DHT22;36703;48.154;17.126;2023-05-10T10:41:59;26.40;35.10
50738;DHT22;36703;48.154;17.126;2023-05-10T10:50:16;26.20;33.60
50738;DHT22;36703;48.154;17.126;2023-05-10T10:54:27;26.10;33.80
50738;DHT22;36703;48.154;17.126;2023-05-10T10:58:33;26.10;33.40
50738;DHT22;36703;48.154;17.126;2023-05-10T11:02:44;26.40;32.80
50738;DHT22;36703;48.154;17.126;2023-05-10T11:06:47;25.90;32.90
50738;DHT22;36703;48.154;17.126;2023-05-10T11:15:12;25.60;33.30
50738;DHT22;36703;48.154;17.126;2023-05-10T11:19:15;25.30;33.60
50738;DHT22;36703;48.154;17.126;2023-05-10T11:23:17;25.50;34.00
50738;DHT22;36703;48.154;17.126;2023-05-10T11:27:20;25.50;33.60
50738;DHT22;36703;48.154;17.126;2023-05-10T11:31:23;25.90;33.80
50738;DHT22;36703;48.154;17.126;2023-05-10T11:35:27;26.30;33.20
50738;DHT22;36703;48.154;17.126;2023-05-10T11:39:30;25.70;32.80
50738;DHT22;36703;48.154;17.126;2023-05-10T11:43:32;25.40;33.20
50738;DHT22;36703;48.154;17.126;2023-05-10T11:47:34;25.10;33.40
50738;DHT22;36703;48.154;17.126;2023-05-10T11:51:38;25.20;33.40
50738;DHT22;36703;48.154;17.126;2023-05-10T11:55:40;25.20;33.30
50738;DHT22;36703;48.154;17.126;2023-05-10T11:59:42;25.30;33.10
50738;DHT22;36703;48.154;17.126;2023-05-10T12:03:43;25.20;32.80
50738;DHT22;36703;48.154;17.126;2023-05-10T12:07:45;25.10;32.80
50738;DHT22;36703;48.154;17.126;2023-05-10T12:11:46;24.90;32.80
50738;DHT22;36703;48.154;17.126;2023-05-10T12:15:48;24.80;32.60
50738;DHT22;36703;48.154;17.126;2023-05-10T12:19:50;24.80;32.20
50738;DHT22;36703;48.154;17.126;2023-05-10T12:23:53;24.60;31.90
50738;DHT22;36703;48.154;17.126;2023-05-10T12:27:56;24.40;32.10
50738;DHT22;36703;48.154;17.126;2023-05-10T12:31:59;24.30;32.70
50738;DHT22;36703;48.154;17.126;2023-05-10T12:36:02;24.10;32.60
50738;DHT22;36703;48.154;17.126;2023-05-10T12:40:06;24.00;33.00
50738;DHT22;36703;48.154;17.126;2023-05-10T12:44:09;24.00;33.30
50738;DHT22;36703;48.154;17.126;2023-05-10T12:48:10;24.00;33.40
50738;DHT22;36703;48.154;17.126;2023-05-10T12:52:12;24.00;33.30
50738;DHT22;36703;48.154;17.126;2023-05-10T12:56:13;23.90;33.20
50738;DHT22;36703;48.154;17.126;2023-05-10T13:00:15;23.80;33.30
50738;DHT22;36703;48.154;17.126;2023-05-10T13:04:17;23.80;33.10
50738;DHT22;36703;48.154;17.126;2023-05-10T13:08:18;23.80;33.00
50738;DHT22;36703;48.154;17.126;2023-05-10T13:12:20;23.80;32.90
50738;DHT22;36703;48.154;17.126;2023-05-10T13:16:22;23.80;33.50
50738;DHT22;36703;48.154;17.126;2023-05-10T13:20:24;23.70;33.50
50738;DHT22;36703;48.154;17.126;2023-05-10T13:24:26;23.70;32.80
50738;DHT22;36703;48.154;17.126;2023-05-10T13:28:27;23.70;33.00
50738;DHT22;36703;48.154;17.126;2023-05-10T13:32:30;23.70;33.00
50738;DHT22;36703;48.154;17.126;2023-05-10T13:36:31;23.70;32.90
50738;DHT22;36703;48.154;17.126;2023-05-10T13:40:33;23.80;32.80
50738;DHT22;36703;48.154;17.126;2023-05-10T13:44:35;23.80;32.70
50738;DHT22;36703;48.154;17.126;2023-05-10T13:48:37;23.70;32.70
50738;DHT22;36703;48.154;17.126;2023-05-10T13:52:38;23.70;32.60
50738;DHT22;36703;48.154;17.126;2023-05-10T13:56:41;23.60;32.30
50738;DHT22;36703;48.154;17.126;2023-05-10T14:00:43;23.60;32.10
50738;DHT22;36703;48.154;17.126;2023-05-10T14:04:45;23.60;31.80
50738;DHT22;36703;48.154;17.126;2023-05-10T14:08:47;23.50;31.80
50738;DHT22;36703;48.154;17.126;2023-05-10T14:12:49;23.50;31.60
50738;DHT22;36703;48.154;17.126;2023-05-10T14:16:51;23.50;31.30
50738;DHT22;36703;48.154;17.126;2023-05-10T14:20:53;23.40;31.20
50738;DHT22;36703;48.154;17.126;2023-05-10T14:24:54;23.40;31.30
50738;DHT22;36703;48.154;17.126;2023-05-10T14:28:56;23.30;31.50
50738;DHT22;36703;48.154;17.126;2023-05-10T14:32:58;23.30;31.50
50738;DHT22;36703;48.154;17.126;2023-05-10T14:36:59;23.30;31.60
50738;DHT22;36703;48.154;17.126;2023-05-10T14:41:01;23.30;31.80
50738;DHT22;36703;48.154;17.126;2023-05-10T14:45:03;23.40;31.90
50738;DHT22;36703;48.154;17.126;2023-05-10T14:49:05;23.40;31.90
50738;DHT22;36703;48.154;17.126;2023-05-10T14:53:07;23.30;31.90
50738;DHT22;36703;48.154;17.126;2023-05-10T14:57:08;23.20;32.10
50738;DHT22;36703;48.154;17.126;2023-05-10T15:01:10;23.10;32.10
50738;DHT22;36703;48.154;17.126;2023-05-10T15:05:12;23.00;32.30
50738;DHT22;36703;48.154;17.126;2023-05-10T15:09:13;23.00;32.30
50738;DHT22;36703;48.154;17.126;2023-05-10T15:13:15;23.00;32.10
50738;DHT22;36703;48.154;17.126;2023-05-10T15:17:16;23.00;32.00
50738;DHT22;36703;48.154;17.126;2023-05-10T15:21:18;22.90;31.70
50738;DHT22;36703;48.154;17.126;2023-05-10T15:25:20;22.90;31.60
50738;DHT22;36703;48.154;17.126;2023-05-10T15:29:22;22.90;31.70
50738;DHT22;36703;48.154;17.126;2023-05-10T15:33:23;22.80;32.60
50738;DHT22;36703;48.154;17.126;2023-05-10T15:37:25;22.80;32.20
50738;DHT22;36703;48.154;17.126;2023-05-10T15:41:27;22.80;32.20
50738;DHT22;36703;48.154;17.126;2023-05-10T15:45:29;22.80;32.10
50738;DHT22;36703;48.154;17.126;2023-05-10T15:49:30;22.80;32.10
50738;DHT22;36703;48.154;17.126;2023-05-10T15:53:32;22.80;32.20
50738;DHT22;36703;48.154;17.126;2023-05-10T15:57:33;22.80;32.20
50738;DHT22;36703;48.154;17.126;2023-05-10T16:01:36;22.70;32.20
50738;DHT22;36703;48.154;17.126;2023-05-10T16:05:37;22.70;32.30
50738;DHT22;36703;48.154;17.126;2023-05-10T16:09:39;22.70;32.20
50738;DHT22;36703;48.154;17.126;2023-05-10T16:13:41;22.60;32.30
50738;DHT22;36703;48.154;17.126;2023-05-10T16:17:42;22.60;32.40
50738;DHT22;36703;48.154;17.126;2023-05-10T16:21:45;22.60;32.40
50738;DHT22;36703;48.154;17.126;2023-05-10T16:25:47;22.60;32.40
50738;DHT22;36703;48.154;17.126;2023-05-10T16:29:49;22.60;32.30
50738;DHT22;36703;48.154;17.126;2023-05-10T16:33:50;22.60;32.40
50738;DHT22;36703;48.154;17.126;2023-05-10T16:37:52;22.60;32.40
50738;DHT22;36703;48.154;17.126;2023-05-10T16:41:53;22.50;32.40
50738;DHT22;36703;48.154;17.126;2023-05-10T16:45:55;22.50;32.40
50738;DHT22;36703;48.154;17.126;2023-05-10T16:49:57;22.50;32.40
50738;DHT22;36703;48.154;17.126;2023-05-10T16:53:58;22.40;32.60
50738;DHT22;36703;48.154;17.126;2023-05-10T16:58:00;22.50;32.80
50738;DHT22;36703;48.154;17.126;2023-05-10T17:02:03;22.50;32.80
50738;DHT22;36703;48.154;17.126;2023-05-10T17:06:05;22.50;32.80
50738;DHT22;36703;48.154;17.126;2023-05-10T17:10:07;22.50;32.70
50738;DHT22;36703;48.154;17.126;2023-05-10T17:14:08;22.40;32.40
50738;DHT22;36703;48.154;17.126;2023-05-10T17:18:10;22.40;32.30
50738;DHT22;36703;48.154;17.126;2023-05-10T17:22:12;22.40;32.20
50738;DHT22;36703;48.154;17.126;2023-05-10T17:26:14;22.30;32.10
50738;DHT22;36703;48.154;17.126;2023-05-10T17:30:15;22.30;32.20
50738;DHT22;36703;48.154;17.126;2023-05-10T17:34:22;22.30;32.40
50738;DHT22;36703;48.154;17.126;2023-05-10T17:38:24;22.30;32.50
50738;DHT22;36703;48.154;17.126;2023-05-10T17:42:26;22.30;32.60
50738;DHT22;36703;48.154;17.126;2023-05-10T17:46:27;22.20;32.80
50738;DHT22;36703;48.154;17.126;2023-05-10T17:50:29;22.20;33.00
50738;DHT22;36703;48.154;17.126;2023-05-10T17:54:32;22.20;33.20
50738;DHT22;36703;48.154;17.126;2023-05-10T17:58:34;22.10;33.30
50738;DHT22;36703;48.154;17.126;2023-05-10T18:02:38;22.10;33.60
50738;DHT22;36703;48.154;17.126;2023-05-10T18:06:39;22.10;33.70
50738;DHT22;36703;48.154;17.126;2023-05-10T18:10:41;22.10;33.90
50738;DHT22;36703;48.154;17.126;2023-05-10T18:14:43;22.00;33.90
50738;DHT22;36703;48.154;17.126;2023-05-10T18:18:44;22.00;34.10
50738;DHT22;36703;48.154;17.126;2023-05-10T18:22:46;22.00;34.30
50738;DHT22;36703;48.154;17.126;2023-05-10T18:26:48;21.90;34.50
50738;DHT22;36703;48.154;17.126;2023-05-10T18:30:50;21.90;34.60
50738;DHT22;36703;48.154;17.126;2023-05-10T18:34:51;21.90;34.80
50738;DHT22;36703;48.154;17.126;2023-05-10T18:38:53;21.80;35.00
50738;DHT22;36703;48.154;17.126;2023-05-10T18:42:55;21.80;35.20
50738;DHT22;36703;48.154;17.126;2023-05-10T18:46:57;21.70;35.40
50738;DHT22;36703;48.154;17.126;2023-05-10T18:50:59;21.70;35.60
50738;DHT22;36703;48.154;17.126;2023-05-10T18:55:01;21.70;35.80
50738;DHT22;36703;48.154;17.126;2023-05-10T18:59:03;21.60;35.90
50738;DHT22;36703;48.154;17.126;2023-05-10T19:03:05;21.60;36.10
50738;DHT22;36703;48.154;17.126;2023-05-10T19:07:06;21.60;36.20
50738;DHT22;36703;48.154;17.126;2023-05-10T19:11:08;21.50;36.30
50738;DHT22;36703;48.154;17.126;2023-05-10T19:15:09;21.50;36.50
50738;DHT22;36703;48.154;17.126;2023-05-10T19:19:11;21.40;36.50
50738;DHT22;36703;48.154;17.126;2023-05-10T19:23:13;21.40;36.60
50738;DHT22;36703;48.154;17.126;2023-05-10T19:27:14;21.40;36.80
50738;DHT22;36703;48.154;17.126;2023-05-10T19:31:16;21.40;36.90
50738;DHT22;36703;48.154;17.126;2023-05-10T19:35:18;21.30;37.10
50738;DHT22;36703;48.154;17.126;2023-05-10T19:39:20;21.20;37.20
50738;DHT22;36703;48.154;17.126;2023-05-10T19:43:22;21.20;37.40
50738;DHT22;36703;48.154;17.126;2023-05-10T19:47:24;21.10;37.50
50738;DHT22;36703;48.154;17.126;2023-05-10T19:51:26;21.10;37.50
50738;DHT22;36703;48.154;17.126;2023-05-10T19:55:29;21.10;37.60
50738;DHT22;36703;48.154;17.126;2023-05-10T19:59:32;21.00;37.60
50738;DHT22;36703;48.154;17.126;2023-05-10T20:03:34;21.00;37.60
50738;DHT22;36703;48.154;17.126;2023-05-10T20:07:36;21.00;37.60
50738;DHT22;36703;48.154;17.126;2023-05-10T20:11:37;20.90;37.60
50738;DHT22;36703;48.154;17.126;2023-05-10T20:15:39;20.90;37.60
50738;DHT22;36703;48.154;17.126;2023-05-10T20:19:40;20.90;37.60
50738;DHT22;36703;48.154;17.126;2023-05-10T20:23:42;20.90;37.70
50738;DHT22;36703;48.154;17.126;2023-05-10T20:27:44;20.70;38.50
50738;DHT22;36703;48.154;17.126;2023-05-10T20:31:46;20.60;38.20
50738;DHT22;36703;48.154;17.126;2023-05-10T20:35:48;20.50;38.50
50738;DHT22;36703;48.154;17.126;2023-05-10T20:39:51;20.40;38.70
50738;DHT22;36703;48.154;17.126;2023-05-10T20:43:53;20.40;38.90
50738;DHT22;36703;48.154;17.126;2023-05-10T20:47:54;20.30;39.00
50738;DHT22;36703;48.154;17.126;2023-05-10T20:51:56;20.30;39.10
50738;DHT22;36703;48.154;17.126;2023-05-10T20:55:57;20.30;39.30
50738;DHT22;36703;48.154;17.126;2023-05-10T20:59:59;20.20;39.50
50738;DHT22;36703;48.154;17.126;2023-05-10T21:04:01;20.10;39.80
50738;DHT22;36703;48.154;17.126;2023-05-10T21:08:03;20.10;40.00
50738;DHT22;36703;48.154;17.126;2023-05-10T21:12:04;20.10;40.20
50738;DHT22;36703;48.154;17.126;2023-05-10T21:16:06;20.10;40.30
50738;DHT22;36703;48.154;17.126;2023-05-10T21:20:08;20.10;40.40
50738;DHT22;36703;48.154;17.126;2023-05-10T21:24:10;20.00;40.50
50738;DHT22;36703;48.154;17.126;2023-05-10T21:28:12;20.00;40.70
50738;DHT22;36703;48.154;17.126;2023-05-10T21:32:14;19.90;40.80
50738;DHT22;36703;48.154;17.126;2023-05-10T21:36:15;19.90;41.00
50738;DHT22;36703;48.154;17.126;2023-05-10T21:40:17;19.90;41.20
50738;DHT22;36703;48.154;17.126;2023-05-10T21:44:19;19.80;41.30
50738;DHT22;36703;48.154;17.126;2023-05-10T21:48:20;19.80;41.50
50738;DHT22;36703;48.154;17.126;2023-05-10T21:52:22;19.80;41.60
50738;DHT22;36703;48.154;17.126;2023-05-10T21:56:23;19.80;41.70
50738;DHT22;36703;48.154;17.126;2023-05-10T22:00:25;19.70;41.80
50738;DHT22;36703;48.154;17.126;2023-05-10T22:04:35;19.70;42.10
50738;DHT22;36703;48.154;17.126;2023-05-10T22:08:37;19.60;42.10
50738;DHT22;36703;48.154;17.126;2023-05-10T22:12:39;19.60;42.20
50738;DHT22;36703;48.154;17.126;2023-05-10T22:16:40;19.60;42.20
50738;DHT22;36703;48.154;17.126;2023-05-10T22:20:45;19.60;42.40
50738;DHT22;36703;48.154;17.126;2023-05-10T22:24:46;19.60;43.10
50738;DHT22;36703;48.154;17.126;2023-05-10T22:28:48;19.50;42.50
50738;DHT22;36703;48.154;17.126;2023-05-10T22:32:50;19.50;42.60
50738;DHT22;36703;48.154;17.126;2023-05-10T22:36:51;19.40;42.60
50738;DHT22;36703;48.154;17.126;2023-05-10T22:40:53;19.40;42.80
50738;DHT22;36703;48.154;17.126;2023-05-10T22:44:54;19.40;42.90
50738;DHT22;36703;48.154;17.126;2023-05-10T22:48:57;19.50;43.00
50738;DHT22;36703;48.154;17.126;2023-05-10T22:52:59;19.40;43.00
50738;DHT22;36703;48.154;17.126;2023-05-10T22:57:00;19.30;43.00
50738;DHT22;36703;48.154;17.126;2023-05-10T23:01:02;19.30;43.20
50738;DHT22;36703;48.154;17.126;2023-05-10T23:05:04;19.20;43.20
50738;DHT22;36703;48.154;17.126;2023-05-10T23:09:07;19.20;43.30
50738;DHT22;36703;48.154;17.126;2023-05-10T23:13:08;19.20;44.20
50738;DHT22;36703;48.154;17.126;2023-05-10T23:17:10;19.20;48.40
50738;DHT22;36703;48.154;17.126;2023-05-10T23:21:11;19.20;49.00
50738;DHT22;36703;48.154;17.126;2023-05-10T23:25:13;19.10;53.60
50738;DHT22;36703;48.154;17.126;2023-05-10T23:29:14;19.10;56.70
50738;DHT22;36703;48.154;17.126;2023-05-10T23:33:16;19.10;59.70
50738;DHT22;36703;48.154;17.126;2023-05-10T23:37:18;19.10;61.00
50738;DHT22;36703;48.154;17.126;2023-05-10T23:41:19;19.10;61.30
50738;DHT22;36703;48.154;17.126;2023-05-10T23:45:21;19.10;60.60
50738;DHT22;36703;48.154;17.126;2023-05-10T23:49:22;19.10;60.50
50738;DHT22;36703;48.154;17.126;2023-05-10T23:53:24;19.10;60.30
50738;DHT22;36703;48.154;17.126;2023-05-10T23:57:26;19.10;60.10
